Time;durP1;ratioP1;P1;durP2;ratioP2;P2;SDS_P1;SDS_P2;PMS_P1;PMS_P2;Temp;Humidity;BMP_temperature;BMP_pressure;BME280_temperature;BME280_humidity;BME280_pressure;Samples;Min_cycle;Max_cycle;Signal;HPM_P1;HPM_P2
2023/11/28 00:01:46;;;;;;;16.83;14.30;;;;;;;;;;4968887;28;20039;-63
2023/11/28 00:04:12;;;;;;;20.43;14.43;;;;;;;;;;4973601;28;20037;-63
2023/11/28 00:06:39;;;;;;;19.20;14.47;;;;;;;;;;4973482;28;20453;-64
2023/11/28 00:09:05;;;;;;;16.87;14.40;;;;;;;;;;4973608;28;20113;-63
2023/11/28 00:11:31;;;;;;;16.43;14.53;;;;;;;;;;4973516;28;20042;-63
2023/11/28 00:13:57;;;;;;;16.70;13.70;;;;;;;;;;4973472;28;20471;-63
2023/11/28 00:16:23;;;;;;;17.00;14.60;;;;;;;;;;4973521;28;20118;-63
2023/11/28 00:18:49;;;;;;;17.50;14.60;;;;;;;;;;4973641;28;20031;-63
2023/11/28 00:21:15;;;;;;;18.10;15.23;;;;;;;;;;4955101;28;20071;-64
2023/11/28 00:23:41;;;;;;;18.13;16.13;;;;;;;;;;4973193;28;20039;-63
2023/11/28 00:26:07;;;;;;;19.00;15.50;;;;;;;;;;4973238;28;20493;-64
2023/11/28 00:28:33;;;;;;;19.53;16.43;;;;;;;;;;4973458;28;20030;-63
2023/11/28 00:30:59;;;;;;;21.97;17.53;;;;;;;;;;4972209;28;20083;-63
2023/11/28 00:33:25;;;;;;;18.50;15.87;;;;;;;;;;4973200;28;20121;-64
2023/11/28 00:35:51;;;;;;;23.77;17.93;;;;;;;;;;4967016;28;20030;-63
2023/11/28 00:38:17;;;;;;;22.63;17.47;;;;;;;;;;4971934;28;20487;-63
2023/11/28 00:40:44;;;;;;;21.93;18.20;;;;;;;;;;4972977;28;20031;-63
2023/11/28 00:43:10;;;;;;;22.67;18.33;;;;;;;;;;4973108;28;20030;-63
2023/11/28 00:45:38;;;;;;;20.90;17.33;;;;;;;;;;4959882;28;20038;-63
2023/11/28 00:48:05;;;;;;;20.00;17.80;;;;;;;;;;4972940;28;20461;-63
2023/11/28 00:50:31;;;;;;;23.20;19.53;;;;;;;;;;4972765;28;20110;-63
2023/11/28 00:52:58;;;;;;;20.07;17.33;;;;;;;;;;4964490;28;20099;-64
2023/11/28 00:55:24;;;;;;;20.23;16.40;;;;;;;;;;4949676;28;20124;-64
2023/11/28 00:57:50;;;;;;;19.17;17.13;;;;;;;;;;4976867;28;20027;-64
2023/11/28 01:00:17;;;;;;;20.30;17.57;;;;;;;;;;4953454;28;20473;-64
2023/11/28 01:02:43;;;;;;;19.77;16.43;;;;;;;;;;4966975;28;20031;-64
2023/11/28 01:05:09;;;;;;;20.40;18.30;;;;;;;;;;4953634;28;20031;-64
2023/11/28 01:07:35;;;;;;;21.10;17.73;;;;;;;;;;4958548;28;20023;-64
2023/11/28 01:10:01;;;;;;;23.00;19.33;;;;;;;;;;4971693;28;20030;-63
2023/11/28 01:12:27;;;;;;;25.33;18.23;;;;;;;;;;4955250;28;20027;-64
2023/11/28 01:14:53;;;;;;;22.07;18.50;;;;;;;;;;4972720;28;20523;-64
2023/11/28 01:17:19;;;;;;;21.43;17.83;;;;;;;;;;4972698;28;20165;-64
2023/11/28 01:19:45;;;;;;;23.43;19.07;;;;;;;;;;4972667;28;20503;-63
2023/11/28 01:22:12;;;;;;;20.43;18.03;;;;;;;;;;4955058;28;20114;-63
2023/11/28 01:24:39;;;;;;;21.53;18.93;;;;;;;;;;4971728;28;20376;-64
2023/11/28 01:27:05;;;;;;;22.60;19.47;;;;;;;;;;4964964;28;20023;-63
2023/11/28 01:29:32;;;;;;;23.50;19.47;;;;;;;;;;4953302;28;20110;-64
2023/11/28 01:31:58;;;;;;;23.47;19.27;;;;;;;;;;4953598;28;20043;-63
2023/11/28 01:34:24;;;;;;;24.03;19.53;;;;;;;;;;4972297;28;20386;-63
2023/11/28 01:36:51;;;;;;;24.27;20.67;;;;;;;;;;4972388;28;20030;-63
2023/11/28 01:39:18;;;;;;;24.53;21.93;;;;;;;;;;4971561;28;20409;-63
2023/11/28 01:41:48;;;;;;;26.07;22.97;;;;;;;;;;4959979;28;20023;-63
2023/11/28 01:44:14;;;;;;;26.53;22.10;;;;;;;;;;4975945;28;20039;-63
2023/11/28 01:46:40;;;;;;;27.53;22.27;;;;;;;;;;4976106;28;20110;-63
2023/11/28 01:49:07;;;;;;;29.10;23.03;;;;;;;;;;4976246;28;20067;-63
2023/11/28 01:51:33;;;;;;;32.60;24.87;;;;;;;;;;4975900;28;20019;-63
2023/11/28 01:54:03;;;;;;;37.30;26.83;;;;;;;;;;4975892;28;20085;-63
2023/11/28 01:56:30;;;;;;;31.33;24.77;;;;;;;;;;4975207;28;20104;-63
2023/11/28 01:58:57;;;;;;;29.30;23.70;;;;;;;;;;4962213;28;20117;-63
2023/11/28 02:01:24;;;;;;;28.47;23.43;;;;;;;;;;4975679;28;20465;-63
2023/11/28 02:03:50;;;;;;;28.13;22.50;;;;;;;;;;4975472;28;20350;-63
2023/11/28 02:06:17;;;;;;;28.57;23.57;;;;;;;;;;4975769;28;20070;-63
2023/11/28 02:08:43;;;;;;;28.27;24.23;;;;;;;;;;4975730;28;20033;-63
2023/11/28 02:11:09;;;;;;;30.93;24.10;;;;;;;;;;4975700;28;20022;-63
2023/11/28 02:13:35;;;;;;;31.50;25.43;;;;;;;;;;4957099;28;20480;-63
2023/11/28 02:16:15;;;;;;;31.77;25.90;;;;;;;;;;4975793;28;20027;-63
2023/11/28 02:18:42;;;;;;;31.80;26.43;;;;;;;;;;4958086;28;20037;-63
2023/11/28 02:21:11;;;;;;;32.80;25.67;;;;;;;;;;4975804;28;20023;-63
2023/11/28 02:23:37;;;;;;;34.27;26.07;;;;;;;;;;4975356;28;20481;-63
2023/11/28 02:26:05;;;;;;;34.70;28.07;;;;;;;;;;4973624;28;20460;-63
2023/11/28 02:28:31;;;;;;;34.63;27.37;;;;;;;;;;4974137;28;20038;-63
2023/11/28 02:30:58;;;;;;;37.00;26.97;;;;;;;;;;4973551;28;20047;-62
2023/11/28 02:33:24;;;;;;;36.20;27.80;;;;;;;;;;4973699;28;20051;-64
2023/11/28 02:35:50;;;;;;;35.97;27.53;;;;;;;;;;4973649;28;20027;-62
2023/11/28 02:38:16;;;;;;;34.57;26.03;;;;;;;;;;4959305;28;20094;-64
2023/11/28 02:40:42;;;;;;;34.83;26.43;;;;;;;;;;4973386;28;20027;-63
2023/11/28 02:43:08;;;;;;;34.37;27.17;;;;;;;;;;4987599;28;20026;-63
2023/11/28 02:45:35;;;;;;;40.73;30.30;;;;;;;;;;4964533;28;20086;-64
2023/11/28 02:48:01;;;;;;;35.63;28.27;;;;;;;;;;4970638;28;20027;-63
2023/11/28 02:50:27;;;;;;;33.80;26.57;;;;;;;;;;4973983;28;20436;-64
2023/11/28 02:52:53;;;;;;;29.90;24.13;;;;;;;;;;4973356;28;20031;-64
2023/11/28 02:55:19;;;;;;;29.43;25.67;;;;;;;;;;4974078;28;20078;-63
2023/11/28 02:57:45;;;;;;;29.93;25.13;;;;;;;;;;4973364;28;20057;-63
2023/11/28 03:00:11;;;;;;;30.43;24.07;;;;;;;;;;4960640;28;20110;-63
2023/11/28 03:02:37;;;;;;;33.13;25.47;;;;;;;;;;4973113;28;20029;-63
2023/11/28 03:05:04;;;;;;;33.67;25.50;;;;;;;;;;4973715;28;20039;-64
2023/11/28 03:07:30;;;;;;;29.77;23.90;;;;;;;;;;4973877;28;20050;-64
2023/11/28 03:09:56;;;;;;;30.07;24.27;;;;;;;;;;4974183;28;20030;-63
2023/11/28 03:12:22;;;;;;;27.70;23.50;;;;;;;;;;4973775;28;20023;-63
2023/11/28 03:14:48;;;;;;;33.40;25.67;;;;;;;;;;4973894;28;20027;-63
2023/11/28 03:17:14;;;;;;;31.90;22.77;;;;;;;;;;4972744;28;20031;-62
2023/11/28 03:19:40;;;;;;;29.10;24.63;;;;;;;;;;4973765;28;20019;-63
2023/11/28 03:22:06;;;;;;;28.80;23.20;;;;;;;;;;4973656;28;20053;-64
2023/11/28 03:24:32;;;;;;;28.33;22.53;;;;;;;;;;4973609;28;20042;-64
2023/11/28 03:26:59;;;;;;;29.40;22.97;;;;;;;;;;4973668;28;20046;-63
2023/11/28 03:29:25;;;;;;;27.47;23.23;;;;;;;;;;4973544;28;20069;-63
2023/11/28 03:31:51;;;;;;;28.43;23.00;;;;;;;;;;4972754;28;20050;-64
2023/11/28 03:34:17;;;;;;;32.37;24.03;;;;;;;;;;4973608;28;20093;-64
2023/11/28 03:36:43;;;;;;;33.43;23.23;;;;;;;;;;4973481;28;20102;-64
2023/11/28 03:39:10;;;;;;;29.13;23.87;;;;;;;;;;4954588;28;20884;-64
2023/11/28 03:41:36;;;;;;;34.43;25.57;;;;;;;;;;4972495;28;20393;-64
2023/11/28 03:44:02;;;;;;;32.93;24.63;;;;;;;;;;4965073;28;20051;-64
2023/11/28 03:46:29;;;;;;;32.37;25.00;;;;;;;;;;4973235;28;20015;-64
2023/11/28 03:48:55;;;;;;;39.23;26.80;;;;;;;;;;4973218;28;20037;-64
2023/11/28 03:51:21;;;;;;;45.83;28.23;;;;;;;;;;4972967;28;20397;-64
2023/11/28 03:53:47;;;;;;;46.83;32.03;;;;;;;;;;4955815;28;20103;-63
2023/11/28 03:56:14;;;;;;;50.63;34.93;;;;;;;;;;4959021;28;20042;-63
2023/11/28 03:58:40;;;;;;;51.50;35.20;;;;;;;;;;4960004;28;20023;-63
2023/11/28 04:01:06;;;;;;;56.90;34.97;;;;;;;;;;4973653;28;20137;-63
2023/11/28 04:03:32;;;;;;;57.93;35.40;;;;;;;;;;4973389;28;20496;-64
2023/11/28 04:05:59;;;;;;;58.43;37.70;;;;;;;;;;4973414;28;20445;-63
2023/11/28 04:08:25;;;;;;;62.80;40.37;;;;;;;;;;4973341;28;20451;-64
2023/11/28 04:10:51;;;;;;;70.97;41.40;;;;;;;;;;4973714;28;20106;-64
2023/11/28 04:13:17;;;;;;;71.13;42.20;;;;;;;;;;4972019;28;20069;-63
2023/11/28 04:15:44;;;;;;;74.70;42.60;;;;;;;;;;4960354;28;20046;-63
2023/11/28 04:18:10;;;;;;;74.37;44.70;;;;;;;;;;4973218;28;20037;-64
2023/11/28 04:20:36;;;;;;;76.37;44.57;;;;;;;;;;4973903;28;20109;-64
2023/11/28 04:23:02;;;;;;;75.10;44.50;;;;;;;;;;4973304;28;20031;-64
2023/11/28 04:25:28;;;;;;;70.87;42.73;;;;;;;;;;4973287;28;20039;-63
2023/11/28 04:27:54;;;;;;;69.13;41.47;;;;;;;;;;4972073;28;20114;-63
2023/11/28 04:30:20;;;;;;;67.67;41.90;;;;;;;;;;4973002;28;20059;-63
2023/11/28 04:32:46;;;;;;;73.50;44.17;;;;;;;;;;4973144;28;20065;-64
2023/11/28 04:35:12;;;;;;;77.43;44.40;;;;;;;;;;4972968;28;20026;-64
2023/11/28 04:37:38;;;;;;;79.17;44.37;;;;;;;;;;4955518;28;20031;-65
2023/11/28 04:40:05;;;;;;;71.30;43.50;;;;;;;;;;4973030;28;20023;-64
2023/11/28 04:42:31;;;;;;;69.13;41.50;;;;;;;;;;4972978;28;20027;-64
2023/11/28 04:44:57;;;;;;;73.87;42.63;;;;;;;;;;4972025;28;20062;-65
2023/11/28 04:47:24;;;;;;;73.67;42.33;;;;;;;;;;4972898;28;20030;-64
2023/11/28 04:49:50;;;;;;;72.53;39.63;;;;;;;;;;4972711;28;20031;-64
2023/11/28 04:52:16;;;;;;;65.87;39.40;;;;;;;;;;4972874;28;20035;-64
2023/11/28 04:54:42;;;;;;;70.17;40.87;;;;;;;;;;4972695;28;20034;-64
2023/11/28 04:57:08;;;;;;;72.53;40.80;;;;;;;;;;4972619;28;20331;-64
2023/11/28 04:59:34;;;;;;;70.23;41.53;;;;;;;;;;4971667;28;20070;-64
2023/11/28 05:02:00;;;;;;;73.10;41.10;;;;;;;;;;4972831;28;20437;-63
2023/11/28 05:04:26;;;;;;;74.33;42.93;;;;;;;;;;4972716;28;20333;-64
2023/11/28 05:06:52;;;;;;;65.83;39.57;;;;;;;;;;4972622;28;20019;-64
2023/11/28 05:09:18;;;;;;;69.23;38.70;;;;;;;;;;4972544;28;20034;-65
2023/11/28 05:11:44;;;;;;;70.23;41.67;;;;;;;;;;4972537;28;20389;-64
2023/11/28 05:14:10;;;;;;;69.93;40.30;;;;;;;;;;4972423;28;20457;-64
2023/11/28 05:16:36;;;;;;;72.70;42.60;;;;;;;;;;4972735;28;20035;-64
2023/11/28 05:19:02;;;;;;;71.93;41.83;;;;;;;;;;4976380;28;20034;-64
2023/11/28 05:21:29;;;;;;;74.13;42.43;;;;;;;;;;4976371;28;20354;-65
2023/11/28 05:23:55;;;;;;;71.17;41.70;;;;;;;;;;4976213;28;20074;-64
2023/11/28 05:26:21;;;;;;;72.63;42.67;;;;;;;;;;4976378;28;20027;-64
2023/11/28 05:28:47;;;;;;;63.27;39.07;;;;;;;;;;4973265;28;20034;-64
2023/11/28 05:31:13;;;;;;;62.57;38.37;;;;;;;;;;4961721;28;20167;-64
2023/11/28 05:33:42;;;;;;;63.87;38.93;;;;;;;;;;4960104;28;20038;-64
2023/11/28 05:36:08;;;;;;;61.17;37.27;;;;;;;;;;4948051;28;20039;-64
2023/11/28 05:38:34;;;;;;;58.83;36.77;;;;;;;;;;4939925;28;20027;-64
2023/11/28 05:41:00;;;;;;;58.00;37.10;;;;;;;;;;4942597;28;20046;-64
2023/11/28 05:43:28;;;;;;;54.63;33.60;;;;;;;;;;4971669;28;20376;-64
2023/11/28 05:45:54;;;;;;;53.47;33.30;;;;;;;;;;4976231;28;20473;-64
2023/11/28 05:48:20;;;;;;;50.13;31.20;;;;;;;;;;4976023;28;20038;-64
2023/11/28 05:50:46;;;;;;;45.67;29.90;;;;;;;;;;4975898;28;20022;-64
2023/11/28 05:53:12;;;;;;;47.70;30.63;;;;;;;;;;4975881;28;20473;-64
2023/11/28 05:55:38;;;;;;;49.23;31.43;;;;;;;;;;4975891;28;20552;-64
2023/11/28 05:58:05;;;;;;;52.00;32.93;;;;;;;;;;4961210;28;20050;-64
2023/11/28 06:00:33;;;;;;;50.10;32.87;;;;;;;;;;4975770;28;20023;-64
2023/11/28 06:02:59;;;;;;;49.03;31.43;;;;;;;;;;4975970;28;20026;-63
2023/11/28 06:05:25;;;;;;;52.47;32.57;;;;;;;;;;4975517;28;20056;-64
2023/11/28 06:07:52;;;;;;;56.40;34.83;;;;;;;;;;4958317;28;20102;-62
2023/11/28 06:10:18;;;;;;;52.70;34.43;;;;;;;;;;4975645;28;20054;-65
2023/11/28 06:12:44;;;;;;;53.70;33.80;;;;;;;;;;4975660;28;20038;-64
2023/11/28 06:15:10;;;;;;;51.50;32.67;;;;;;;;;;4973700;28;20043;-65
2023/11/28 06:17:36;;;;;;;50.40;34.10;;;;;;;;;;4962878;28;20027;-64
2023/11/28 06:20:05;;;;;;;52.47;34.23;;;;;;;;;;4975570;28;20465;-64
2023/11/28 06:22:32;;;;;;;52.63;35.77;;;;;;;;;;4971975;28;20023;-64
2023/11/28 06:24:58;;;;;;;56.00;34.70;;;;;;;;;;4955142;28;20354;-64
2023/11/28 06:27:24;;;;;;;54.63;36.57;;;;;;;;;;4974188;28;20532;-64
2023/11/28 06:29:50;;;;;;;55.80;36.23;;;;;;;;;;4974455;28;20034;-63
2023/11/28 06:32:16;;;;;;;56.60;35.67;;;;;;;;;;4973113;28;20114;-64
2023/11/28 06:34:42;;;;;;;50.33;32.77;;;;;;;;;;4975210;28;20434;-64
2023/11/28 06:37:08;;;;;;;49.03;32.90;;;;;;;;;;4975267;28;20049;-65
2023/11/28 06:39:34;;;;;;;48.33;33.43;;;;;;;;;;4973730;28;20095;-65
2023/11/28 06:42:01;;;;;;;50.57;35.20;;;;;;;;;;4965613;28;20551;-64
2023/11/28 06:44:27;;;;;;;52.07;34.10;;;;;;;;;;4974925;28;20137;-64
2023/11/28 06:46:54;;;;;;;50.17;32.00;;;;;;;;;;4975242;28;20164;-64
2023/11/28 06:49:20;;;;;;;50.90;33.57;;;;;;;;;;4975022;28;20027;-64
2023/11/28 06:51:46;;;;;;;50.50;31.80;;;;;;;;;;4975017;28;20057;-64
2023/11/28 06:54:13;;;;;;;46.50;31.53;;;;;;;;;;4974912;28;20027;-65
2023/11/28 06:56:39;;;;;;;47.30;30.27;;;;;;;;;;4956267;28;20122;-64
2023/11/28 06:59:05;;;;;;;45.43;31.13;;;;;;;;;;4974863;28;20473;-65
2023/11/28 07:01:33;;;;;;;42.73;30.87;;;;;;;;;;4957324;28;20342;-64
2023/11/28 07:03:59;;;;;;;46.70;31.93;;;;;;;;;;4957197;28;20382;-64
2023/11/28 07:06:25;;;;;;;47.20;32.40;;;;;;;;;;4974662;28;20041;-64
2023/11/28 07:08:51;;;;;;;45.50;30.57;;;;;;;;;;4974652;28;20105;-64
2023/11/28 07:11:19;;;;;;;43.50;30.07;;;;;;;;;;4974712;28;20102;-64
2023/11/28 07:13:46;;;;;;;44.93;31.67;;;;;;;;;;4974342;28;20031;-64
2023/11/28 07:16:12;;;;;;;47.07;31.03;;;;;;;;;;4970151;28;20113;-64
2023/11/28 07:18:38;;;;;;;38.10;27.80;;;;;;;;;;4966566;28;20022;-64
2023/11/28 07:21:04;;;;;;;33.70;26.97;;;;;;;;;;4974354;28;20026;-64
2023/11/28 07:23:30;;;;;;;33.20;26.83;;;;;;;;;;4965806;28;20031;-64
2023/11/28 07:25:56;;;;;;;35.77;26.43;;;;;;;;;;4974244;28;20029;-64
2023/11/28 07:28:22;;;;;;;33.07;25.60;;;;;;;;;;4969797;28;20073;-64
2023/11/28 07:30:48;;;;;;;31.33;25.67;;;;;;;;;;4973800;28;20116;-64
2023/11/28 07:33:13;;;;;;;34.53;25.43;;;;;;;;;;4974124;28;20377;-63
2023/11/28 07:35:40;;;;;;;31.93;25.10;;;;;;;;;;4973937;28;20019;-64
2023/11/28 07:38:06;;;;;;;32.80;25.47;;;;;;;;;;4974085;28;20181;-64
2023/11/28 07:40:33;;;;;;;34.90;27.53;;;;;;;;;;4973596;28;20114;-64
2023/11/28 07:43:00;;;;;;;35.73;27.47;;;;;;;;;;4962279;28;20041;-64
2023/11/28 07:45:26;;;;;;;32.47;25.53;;;;;;;;;;4973818;28;20145;-64
2023/11/28 07:47:52;;;;;;;32.93;24.77;;;;;;;;;;4973997;28;20073;-64
2023/11/28 07:50:19;;;;;;;36.07;26.67;;;;;;;;;;4956630;28;20378;-64
2023/11/28 07:52:45;;;;;;;34.90;26.70;;;;;;;;;;4973647;28;20107;-65
2023/11/28 07:55:11;;;;;;;34.83;27.00;;;;;;;;;;4973908;28;20054;-64
2023/11/28 07:57:37;;;;;;;35.37;27.63;;;;;;;;;;4973887;28;20029;-65
2023/11/28 08:00:06;;;;;;;34.40;28.03;;;;;;;;;;4973562;28;20109;-64
2023/11/28 08:02:32;;;;;;;35.80;28.53;;;;;;;;;;4973883;28;20026;-65
2023/11/28 08:04:58;;;;;;;34.83;27.27;;;;;;;;;;4973645;28;20035;-64
2023/11/28 08:07:24;;;;;;;37.70;28.03;;;;;;;;;;4973634;28;20061;-64
2023/11/28 08:09:51;;;;;;;36.87;29.27;;;;;;;;;;4973865;28;20058;-65
2023/11/28 08:12:17;;;;;;;44.00;29.57;;;;;;;;;;4973536;28;20022;-65
2023/11/28 08:14:42;;;;;;;38.57;29.47;;;;;;;;;;4973578;28;20026;-64
2023/11/28 08:17:09;;;;;;;42.10;30.60;;;;;;;;;;4955963;28;20030;-64
2023/11/28 08:19:35;;;;;;;40.80;30.60;;;;;;;;;;4973300;28;20037;-64
2023/11/28 08:22:01;;;;;;;41.10;29.80;;;;;;;;;;4955829;28;20536;-64
2023/11/28 08:24:27;;;;;;;45.23;30.33;;;;;;;;;;4973192;28;20114;-65
2023/11/28 08:26:53;;;;;;;38.37;29.70;;;;;;;;;;4955789;28;20015;-64
2023/11/28 08:29:19;;;;;;;44.27;30.83;;;;;;;;;;4973192;28;20384;-65
2023/11/28 08:31:45;;;;;;;42.03;29.70;;;;;;;;;;4973075;28;20043;-65
2023/11/28 08:34:11;;;;;;;38.60;27.37;;;;;;;;;;4973102;28;20116;-65
2023/11/28 08:36:37;;;;;;;34.50;29.13;;;;;;;;;;4973261;28;20101;-65
2023/11/28 08:39:05;;;;;;;36.13;26.30;;;;;;;;;;4973080;28;20034;-64
2023/11/28 08:41:31;;;;;;;35.53;27.40;;;;;;;;;;4973023;28;20112;-65
2023/11/28 08:43:57;;;;;;;32.90;27.10;;;;;;;;;;4972856;28;20399;-64
2023/11/28 08:46:23;;;;;;;33.87;27.80;;;;;;;;;;4973230;28;20113;-64
2023/11/28 08:48:50;;;;;;;33.50;27.30;;;;;;;;;;4973120;28;20067;-63
2023/11/28 08:51:16;;;;;;;38.80;28.77;;;;;;;;;;4972172;28;20019;-64
2023/11/28 08:53:42;;;;;;;34.13;28.53;;;;;;;;;;4972926;28;20082;-64
2023/11/28 08:56:14;;;;;;;35.73;28.93;;;;;;;;;;4972832;28;20027;-64
2023/11/28 08:58:40;;;;;;;35.00;28.33;;;;;;;;;;4972887;28;20027;-64
2023/11/28 09:01:06;;;;;;;40.13;27.97;;;;;;;;;;4972952;28;20027;-64
2023/11/28 09:03:32;;;;;;;33.80;27.10;;;;;;;;;;4972710;28;20027;-64
2023/11/28 09:05:58;;;;;;;35.50;27.17;;;;;;;;;;4973018;28;20045;-64
2023/11/28 09:08:24;;;;;;;34.93;27.60;;;;;;;;;;4972651;28;20019;-64
2023/11/28 09:10:50;;;;;;;35.23;27.13;;;;;;;;;;4973079;28;20027;-64
2023/11/28 09:13:16;;;;;;;32.93;27.47;;;;;;;;;;4972882;28;20030;-64
2023/11/28 09:15:42;;;;;;;33.33;27.13;;;;;;;;;;4972790;28;20031;-64
2023/11/28 09:18:08;;;;;;;36.13;27.43;;;;;;;;;;4972714;28;20096;-64
2023/11/28 09:20:34;;;;;;;36.13;27.20;;;;;;;;;;4972715;28;20027;-64
2023/11/28 09:23:00;;;;;;;34.93;27.03;;;;;;;;;;4972824;28;20601;-64
2023/11/28 09:25:26;;;;;;;35.77;27.70;;;;;;;;;;4972118;28;20050;-64
2023/11/28 09:27:52;;;;;;;34.87;29.20;;;;;;;;;;4971389;28;20125;-63
2023/11/28 09:30:19;;;;;;;32.13;25.73;;;;;;;;;;4972535;28;20110;-64
2023/11/28 09:32:45;;;;;;;35.13;28.93;;;;;;;;;;4972801;28;20034;-64
2023/11/28 09:35:11;;;;;;;28.67;25.00;;;;;;;;;;4972661;28;20035;-64
2023/11/28 09:37:38;;;;;;;35.93;27.57;;;;;;;;;;4972631;28;20031;-64
2023/11/28 09:40:05;;;;;;;28.23;24.90;;;;;;;;;;4972545;28;20030;-64
2023/11/28 09:42:34;;;;;;;32.13;26.57;;;;;;;;;;4972425;28;20066;-64
2023/11/28 09:45:04;;;;;;;32.70;26.53;;;;;;;;;;4972614;28;20045;-64
2023/11/28 09:47:34;;;;;;;31.30;24.53;;;;;;;;;;4955034;28;20022;-64
2023/11/28 09:50:00;;;;;;;26.40;23.60;;;;;;;;;;4972467;28;20058;-64
2023/11/28 09:52:27;;;;;;;28.10;23.80;;;;;;;;;;4972215;28;20106;-63
2023/11/28 09:54:53;;;;;;;25.87;21.83;;;;;;;;;;4972288;28;20027;-63
2023/11/28 09:57:21;;;;;;;27.47;22.77;;;;;;;;;;4972367;28;20037;-64
2023/11/28 09:59:49;;;;;;;25.13;21.60;;;;;;;;;;4972195;28;20035;-63
2023/11/28 10:02:16;;;;;;;23.17;20.27;;;;;;;;;;4967012;28;20481;-64
2023/11/28 10:04:42;;;;;;;26.83;20.80;;;;;;;;;;4975731;28;20118;-64
2023/11/28 10:07:09;;;;;;;24.33;19.57;;;;;;;;;;4975664;28;20019;-63
2023/11/28 10:09:36;;;;;;;28.53;21.23;;;;;;;;;;4970281;28;20054;-63
2023/11/28 10:12:09;;;;;;;23.23;20.67;;;;;;;;;;4965119;28;20086;-63
2023/11/28 10:14:39;;;;;;;24.63;21.30;;;;;;;;;;4966379;28;20031;-64
2023/11/28 10:17:05;;;;;;;26.43;21.13;;;;;;;;;;4964160;28;20026;-64
2023/11/28 10:19:31;;;;;;;26.40;20.60;;;;;;;;;;4959303;28;20023;-64
2023/11/28 10:21:57;;;;;;;26.20;21.10;;;;;;;;;;4955477;28;20038;-64
2023/11/28 10:24:24;;;;;;;25.33;20.13;;;;;;;;;;4969590;28;20408;-64
2023/11/28 10:26:54;;;;;;;23.77;21.17;;;;;;;;;;4975368;28;20065;-64
2023/11/28 10:29:20;;;;;;;25.97;21.40;;;;;;;;;;4972305;28;20484;-63
2023/11/28 10:31:46;;;;;;;21.57;18.97;;;;;;;;;;4971702;28;20047;-63
2023/11/28 10:34:12;;;;;;;23.93;19.50;;;;;;;;;;4971671;28;20070;-65
2023/11/28 10:36:39;;;;;;;23.17;18.43;;;;;;;;;;4972619;28;20031;-63
2023/11/28 10:39:05;;;;;;;28.37;19.30;;;;;;;;;;4954052;28;20338;-64
2023/11/28 10:41:32;;;;;;;20.57;17.43;;;;;;;;;;4971477;28;20038;-63
2023/11/28 10:43:58;;;;;;;26.13;17.73;;;;;;;;;;4971897;28;20039;-63
2023/11/28 10:46:24;;;;;;;23.90;18.13;;;;;;;;;;4971343;28;20046;-64
2023/11/28 10:48:50;;;;;;;20.83;17.40;;;;;;;;;;4972357;28;20041;-64
2023/11/28 10:51:17;;;;;;;22.50;18.27;;;;;;;;;;4970651;28;20034;-63
2023/11/28 10:53:46;;;;;;;20.53;16.63;;;;;;;;;;4970957;28;20067;-64
2023/11/28 10:56:14;;;;;;;20.97;15.47;;;;;;;;;;4972119;28;20027;-64
2023/11/28 10:58:41;;;;;;;18.00;14.37;;;;;;;;;;4970590;28;20019;-64
2023/11/28 11:01:07;;;;;;;17.03;14.03;;;;;;;;;;4971580;28;20480;-64
2023/11/28 11:03:33;;;;;;;19.93;14.60;;;;;;;;;;4971092;28;20027;-64
2023/11/28 11:06:00;;;;;;;18.27;15.13;;;;;;;;;;4971226;28;20033;-64
2023/11/28 11:08:27;;;;;;;16.07;14.10;;;;;;;;;;4971917;28;20031;-64
2023/11/28 11:10:53;;;;;;;19.33;14.07;;;;;;;;;;4970661;28;20110;-64
2023/11/28 11:13:38;;;;;;;16.63;14.53;;;;;;;;;;4970382;28;20098;-64
2023/11/28 11:16:07;;;;;;;17.30;13.65;;;;;;;;;;4969483;28;20038;-64
2023/11/28 11:18:41;;;;;;;19.00;14.57;;;;;;;;;;4971483;28;20132;-64
2023/11/28 11:21:19;;;;;;;17.20;14.80;;;;;;;;;;4970602;28;20063;-64
2023/11/28 11:23:47;;;;;;;22.73;14.93;;;;;;;;;;4968643;28;20046;-64
2023/11/28 11:26:13;;;;;;;19.77;15.00;;;;;;;;;;4972043;28;20077;-64
2023/11/28 11:28:40;;;;;;;19.13;15.23;;;;;;;;;;4970459;28;20027;-64
2023/11/28 11:31:15;;;;;;;17.67;14.33;;;;;;;;;;4970594;28;20053;-64
2023/11/28 11:33:41;;;;;;;18.53;15.10;;;;;;;;;;4971093;28;20034;-64
2023/11/28 11:36:10;;;;;;;16.70;13.40;;;;;;;;;;4951346;28;20360;-63
2023/11/28 11:38:37;;;;;;;17.40;13.33;;;;;;;;;;4970024;28;20057;-63
2023/11/28 11:41:08;;;;;;;14.87;11.97;;;;;;;;;;4971056;28;20027;-64
2023/11/28 11:43:39;;;;;;;16.73;12.13;;;;;;;;;;4969680;28;20146;-63
2023/11/28 11:46:16;;;;;;;17.67;12.80;;;;;;;;;;4970403;28;20058;-63
2023/11/28 11:48:43;;;;;;;13.37;10.87;;;;;;;;;;4969273;28;20065;-64
2023/11/28 11:51:09;;;;;;;13.40;11.37;;;;;;;;;;4970318;28;20035;-64
2023/11/28 11:53:39;;;;;;;15.97;11.40;;;;;;;;;;4970362;28;20030;-64
2023/11/28 11:56:05;;;;;;;14.03;11.80;;;;;;;;;;4968218;28;20480;-64
2023/11/28 11:58:31;;;;;;;14.20;12.17;;;;;;;;;;4969839;28;20046;-63
2023/11/28 12:01:01;;;;;;;16.97;11.00;;;;;;;;;;4952898;28;20038;-64
2023/11/28 12:03:28;;;;;;;13.40;10.33;;;;;;;;;;4970717;28;20432;-64
2023/11/28 12:05:59;;;;;;;13.93;11.07;;;;;;;;;;4969395;28;20097;-64
2023/11/28 12:08:25;;;;;;;12.47;11.10;;;;;;;;;;4970072;28;20055;-63
2023/11/28 12:10:54;;;;;;;13.63;10.97;;;;;;;;;;4955423;28;20381;-64
2023/11/28 12:13:20;;;;;;;12.33;11.03;;;;;;;;;;4966817;28;20109;-64
2023/11/28 12:15:46;;;;;;;14.10;10.27;;;;;;;;;;4973049;28;20384;-64
2023/11/28 12:18:13;;;;;;;16.03;11.83;;;;;;;;;;4973432;28;20026;-63
2023/11/28 12:20:39;;;;;;;15.93;11.27;;;;;;;;;;4973415;28;20044;-63
2023/11/28 12:23:08;;;;;;;14.77;11.60;;;;;;;;;;4955900;28;20101;-63
2023/11/28 12:25:38;;;;;;;13.17;11.00;;;;;;;;;;4972692;28;20049;-63
2023/11/28 12:28:04;;;;;;;13.10;11.07;;;;;;;;;;4972872;28;20457;-63
2023/11/28 12:30:31;;;;;;;13.18;11.65;;;;;;;;;;4973136;28;20050;-63
2023/11/28 12:32:57;;;;;;;14.00;11.00;;;;;;;;;;4973188;28;20116;-63
2023/11/28 12:35:25;;;;;;;15.13;10.87;;;;;;;;;;4973144;28;20034;-63
2023/11/28 12:37:51;;;;;;;15.55;11.77;;;;;;;;;;4973077;28;20054;-64
2023/11/28 12:40:18;;;;;;;15.48;10.77;;;;;;;;;;4973106;28;20105;-63
2023/11/28 12:42:47;;;;;;;15.33;11.33;;;;;;;;;;4973055;28;20045;-63
2023/11/28 12:45:13;;;;;;;13.93;11.75;;;;;;;;;;4955534;28;20246;-63
2023/11/28 12:47:40;;;;;;;16.38;11.77;;;;;;;;;;4972910;28;20050;-63
2023/11/28 12:50:07;;;;;;;14.60;11.52;;;;;;;;;;4973217;28;20027;-64
2023/11/28 12:52:38;;;;;;;17.52;13.50;;;;;;;;;;4955553;28;20473;-63
2023/11/28 12:55:05;;;;;;;17.23;12.57;;;;;;;;;;4973147;28;20481;-63
2023/11/28 12:57:34;;;;;;;16.20;12.57;;;;;;;;;;4972991;28;20081;-64
2023/11/28 13:00:00;;;;;;;13.70;12.05;;;;;;;;;;4955282;28;20019;-63
2023/11/28 13:02:26;;;;;;;14.90;12.63;;;;;;;;;;4972838;28;20027;-63
2023/11/28 13:04:53;;;;;;;16.88;12.80;;;;;;;;;;4972593;28;20042;-64
2023/11/28 13:07:21;;;;;;;20.65;13.70;;;;;;;;;;4972834;28;20014;-64
2023/11/28 13:09:47;;;;;;;21.27;14.77;;;;;;;;;;4972632;28;20093;-64
2023/11/28 13:12:13;;;;;;;18.58;13.60;;;;;;;;;;4955314;28;20031;-64
2023/11/28 13:14:40;;;;;;;15.18;13.10;;;;;;;;;;4972776;28;20031;-64
2023/11/28 13:17:06;;;;;;;14.65;12.60;;;;;;;;;;4972587;28;20119;-63
2023/11/28 13:19:32;;;;;;;18.13;13.05;;;;;;;;;;4972766;28;20089;-63
2023/11/28 13:21:58;;;;;;;17.25;12.82;;;;;;;;;;4972724;28;20204;-64
2023/11/28 13:24:24;;;;;;;17.83;11.95;;;;;;;;;;4972600;28;20042;-63
2023/11/28 13:26:50;;;;;;;14.65;11.98;;;;;;;;;;4972607;28;20027;-63
2023/11/28 13:29:16;;;;;;;15.20;12.30;;;;;;;;;;4973223;28;20085;-63
2023/11/28 13:31:44;;;;;;;19.77;11.77;;;;;;;;;;4972459;28;20160;-63
2023/11/28 13:34:12;;;;;;;15.95;11.80;;;;;;;;;;4972389;28;20030;-63
2023/11/28 13:36:39;;;;;;;16.35;10.95;;;;;;;;;;4972586;28;20023;-63
2023/11/28 13:39:05;;;;;;;12.35;10.98;;;;;;;;;;4975820;28;20049;-63
2023/11/28 13:41:31;;;;;;;14.75;10.90;;;;;;;;;;4976297;28;20109;-63
2023/11/28 13:43:59;;;;;;;15.77;11.95;;;;;;;;;;4976166;28;20416;-63
2023/11/28 13:46:25;;;;;;;13.13;11.70;;;;;;;;;;4976223;28;20023;-63
2023/11/28 13:48:52;;;;;;;12.63;11.27;;;;;;;;;;4976286;28;20034;-63
2023/11/28 13:51:18;;;;;;;12.10;10.88;;;;;;;;;;4976043;28;20019;-64
2023/11/28 13:53:44;;;;;;;13.80;11.27;;;;;;;;;;4976029;28;20038;-62
2023/11/28 13:56:10;;;;;;;13.13;10.70;;;;;;;;;;4964509;28;20110;-62
2023/11/28 13:58:36;;;;;;;13.95;10.65;;;;;;;;;;4972572;28;20057;-62
2023/11/28 14:01:03;;;;;;;12.48;10.35;;;;;;;;;;4969083;28;20023;-63
2023/11/28 14:03:29;;;;;;;15.98;11.50;;;;;;;;;;4963191;28;20127;-63
2023/11/28 14:05:55;;;;;;;14.63;11.10;;;;;;;;;;4964860;28;20039;-63
2023/11/28 14:08:21;;;;;;;14.50;10.85;;;;;;;;;;4974864;28;20080;-62
2023/11/28 14:10:48;;;;;;;14.15;10.43;;;;;;;;;;4972908;28;20038;-62
2023/11/28 14:13:16;;;;;;;12.32;10.80;;;;;;;;;;4949192;28;20129;-63